Terminal Aerodrome Forecast
Issued by NWS Northern Indiana

Home | Current Version | Previous Version | Graphics & Text | Print | Product List | Glossary On
Versions: 1 2 3 4 5 6 7 8 9 10 11 12 13 14 15
000
FTUS43 KIWX 271120
TAFFWA
TAF
KFWA 271120Z 2712/2812 02018G26KT 6SM -RA BR BKN015 OVC030
      TEMPO 2712/2714 3SM -RA BR OVC008
     FM271500 35019G27KT 6SM -SHRA SCT015 OVC030
      TEMPO 2715/2718 3SM -SHRA OVC015
     FM280000 32012KT P6SM SCT050=

USA.gov is the U.S. government's official web portal to all federal, state and local government web resources and services.